sensor_id;sensor_type;location;lat;lon;timestamp;pressure;altitude;pressure_sealevel;temperature;humidity
18201;BME280;9226;47.858;9.594;2022-09-03T00:01:34;94855.81;;;17.73;64.94
18201;BME280;9226;47.858;9.594;2022-09-03T00:04:11;94855.88;;;17.65;66.03
18201;BME280;9226;47.858;9.594;2022-09-03T00:06:43;94854.22;;;17.64;64.97
18201;BME280;9226;47.858;9.594;2022-09-03T00:09:20;94853.75;;;17.60;65.37
18201;BME280;9226;47.858;9.594;2022-09-03T00:11:55;94855.59;;;17.60;64.87
18201;BME280;9226;47.858;9.594;2022-09-03T00:17:02;94866.41;;;17.51;65.22
18201;BME280;9226;47.858;9.594;2022-09-03T00:19:32;94863.06;;;17.49;65.49
18201;BME280;9226;47.858;9.594;2022-09-03T00:22:07;94866.13;;;17.46;66.05
18201;BME280;9226;47.858;9.594;2022-09-03T00:24:38;94863.97;;;17.42;66.07
18201;BME280;9226;47.858;9.594;2022-09-03T00:27:10;94863.78;;;17.43;65.75
18201;BME280;9226;47.858;9.594;2022-09-03T00:29:47;94860.84;;;17.38;66.53
18201;BME280;9226;47.858;9.594;2022-09-03T00:32:18;94858.16;;;17.38;66.31
18201;BME280;9226;47.858;9.594;2022-09-03T00:34:49;94863.50;;;17.38;66.14
18201;BME280;9226;47.858;9.594;2022-09-03T00:37:15;94863.19;;;17.33;65.96
18201;BME280;9226;47.858;9.594;2022-09-03T00:39:41;94862.56;;;17.31;66.35
18201;BME280;9226;47.858;9.594;2022-09-03T00:42:50;94858.59;;;17.27;66.95
18201;BME280;9226;47.858;9.594;2022-09-03T00:48:28;94861.63;;;17.24;67.29
18201;BME280;9226;47.858;9.594;2022-09-03T00:51:14;94863.63;;;17.22;66.84
18201;BME280;9226;47.858;9.594;2022-09-03T01:02:30;94860.91;;;17.07;68.59
18201;BME280;9226;47.858;9.594;2022-09-03T01:05:09;94858.06;;;17.08;68.53
18201;BME280;9226;47.858;9.594;2022-09-03T01:10:21;94856.56;;;17.06;68.57
18201;BME280;9226;47.858;9.594;2022-09-03T01:13:01;94849.47;;;17.13;67.79
18201;BME280;9226;47.858;9.594;2022-09-03T01:15:34;94851.47;;;17.11;67.46
18201;BME280;9226;47.858;9.594;2022-09-03T01:34:53;94850.94;;;17.15;67.38
18201;BME280;9226;47.858;9.594;2022-09-03T01:43:49;94868.88;;;17.15;67.95
18201;BME280;9226;47.858;9.594;2022-09-03T01:46:35;94875.75;;;17.17;66.82
18201;BME280;9226;47.858;9.594;2022-09-03T01:49:11;94874.72;;;17.18;66.12
18201;BME280;9226;47.858;9.594;2022-09-03T01:51:40;94885.78;;;17.15;66.24
18201;BME280;9226;47.858;9.594;2022-09-03T01:54:29;94892.00;;;17.16;66.47
18201;BME280;9226;47.858;9.594;2022-09-03T02:02:25;94897.56;;;17.06;66.72
18201;BME280;9226;47.858;9.594;2022-09-03T02:05:02;94904.63;;;17.07;67.30
18201;BME280;9226;47.858;9.594;2022-09-03T02:07:34;94921.34;;;17.09;66.67
18201;BME280;9226;47.858;9.594;2022-09-03T02:10:01;94925.22;;;17.07;67.19
18201;BME280;9226;47.858;9.594;2022-09-03T02:12:30;94921.34;;;17.09;66.88
18201;BME280;9226;47.858;9.594;2022-09-03T02:15:14;94924.03;;;17.09;67.74
18201;BME280;9226;47.858;9.594;2022-09-03T02:17:42;94924.69;;;17.11;67.53
18201;BME280;9226;47.858;9.594;2022-09-03T02:20:12;94936.41;;;17.10;67.76
18201;BME280;9226;47.858;9.594;2022-09-03T02:22:41;94941.06;;;17.16;67.01
18201;BME280;9226;47.858;9.594;2022-09-03T02:25:07;94950.63;;;17.19;67.24
18201;BME280;9226;47.858;9.594;2022-09-03T02:27:36;94949.75;;;17.18;67.44
18201;BME280;9226;47.858;9.594;2022-09-03T02:30:03;94951.28;;;17.21;67.37
18201;BME280;9226;47.858;9.594;2022-09-03T02:32:29;94947.75;;;17.21;67.58
18201;BME280;9226;47.858;9.594;2022-09-03T02:34:55;94951.75;;;17.25;67.95
18201;BME280;9226;47.858;9.594;2022-09-03T02:37:21;94947.06;;;17.27;68.29
18201;BME280;9226;47.858;9.594;2022-09-03T02:39:46;94946.13;;;17.34;67.94
18201;BME280;9226;47.858;9.594;2022-09-03T02:42:14;94947.75;;;17.21;68.88
18201;BME280;9226;47.858;9.594;2022-09-03T02:45:03;94952.63;;;16.94;70.59
18201;BME280;9226;47.858;9.594;2022-09-03T02:47:34;94947.59;;;16.91;70.16
18201;BME280;9226;47.858;9.594;2022-09-03T02:50:02;94945.13;;;16.73;71.14
18201;BME280;9226;47.858;9.594;2022-09-03T02:52:27;94931.91;;;16.79;70.67
18201;BME280;9226;47.858;9.594;2022-09-03T02:54:52;94940.75;;;16.80;71.37
18201;BME280;9226;47.858;9.594;2022-09-03T02:57:18;94943.25;;;16.50;73.49
18201;BME280;9226;47.858;9.594;2022-09-03T02:59:43;94948.38;;;16.60;72.68
18201;BME280;9226;47.858;9.594;2022-09-03T03:02:11;94953.69;;;16.68;71.82
18201;BME280;9226;47.858;9.594;2022-09-03T03:04:37;94946.22;;;16.63;72.08
18201;BME280;9226;47.858;9.594;2022-09-03T03:07:03;94960.13;;;16.59;73.14
18201;BME280;9226;47.858;9.594;2022-09-03T03:09:29;94956.75;;;16.57;73.25
18201;BME280;9226;47.858;9.594;2022-09-03T03:11:54;94951.28;;;16.50;72.84
18201;BME280;9226;47.858;9.594;2022-09-03T03:14:20;94950.81;;;16.38;73.86
18201;BME280;9226;47.858;9.594;2022-09-03T03:16:47;94947.13;;;16.39;73.19
18201;BME280;9226;47.858;9.594;2022-09-03T03:19:12;94948.97;;;16.39;73.94
18201;BME280;9226;47.858;9.594;2022-09-03T03:21:38;94949.44;;;16.42;73.46
18201;BME280;9226;47.858;9.594;2022-09-03T03:24:04;94931.00;;;16.48;74.53
18201;BME280;9226;47.858;9.594;2022-09-03T03:26:30;94936.25;;;16.41;76.65
18201;BME280;9226;47.858;9.594;2022-09-03T03:28:58;94939.88;;;16.56;74.91
18201;BME280;9226;47.858;9.594;2022-09-03T03:31:24;94945.81;;;16.67;74.08
18201;BME280;9226;47.858;9.594;2022-09-03T03:33:56;94956.72;;;16.65;75.97
18201;BME280;9226;47.858;9.594;2022-09-03T03:36:24;94939.81;;;16.64;76.81
18201;BME280;9226;47.858;9.594;2022-09-03T03:38:53;94940.47;;;16.75;75.23
18201;BME280;9226;47.858;9.594;2022-09-03T03:41:22;94937.09;;;16.81;75.20
18201;BME280;9226;47.858;9.594;2022-09-03T03:43:52;94928.16;;;16.89;75.89
18201;BME280;9226;47.858;9.594;2022-09-03T03:46:19;94933.50;;;16.97;75.62
18201;BME280;9226;47.858;9.594;2022-09-03T03:48:46;94930.13;;;17.03;76.03
18201;BME280;9226;47.858;9.594;2022-09-03T03:51:12;94933.09;;;17.08;76.44
18201;BME280;9226;47.858;9.594;2022-09-03T03:53:38;94934.03;;;17.15;76.29
18201;BME280;9226;47.858;9.594;2022-09-03T03:56:09;94946.09;;;17.20;77.33
18201;BME280;9226;47.858;9.594;2022-09-03T03:58:35;94949.91;;;17.25;76.45
18201;BME280;9226;47.858;9.594;2022-09-03T04:01:16;94948.69;;;17.28;78.36
18201;BME280;9226;47.858;9.594;2022-09-03T04:03:42;94946.66;;;17.30;76.70
18201;BME280;9226;47.858;9.594;2022-09-03T04:06:13;94955.75;;;17.29;76.77
18201;BME280;9226;47.858;9.594;2022-09-03T04:08:41;94952.03;;;17.30;76.41
18201;BME280;9226;47.858;9.594;2022-09-03T04:11:10;94946.03;;;17.28;76.81
18201;BME280;9226;47.858;9.594;2022-09-03T04:13:38;94949.72;;;17.27;77.49
18201;BME280;9226;47.858;9.594;2022-09-03T04:18:32;94949.91;;;17.25;79.20
18201;BME280;9226;47.858;9.594;2022-09-03T04:21:02;94949.06;;;17.25;79.13
18201;BME280;9226;47.858;9.594;2022-09-03T04:23:36;94947.06;;;17.27;80.29
18201;BME280;9226;47.858;9.594;2022-09-03T04:26:03;94957.97;;;17.25;80.62
18201;BME280;9226;47.858;9.594;2022-09-03T04:28:28;94957.44;;;17.22;81.03
18201;BME280;9226;47.858;9.594;2022-09-03T04:30:59;94970.16;;;17.28;80.14
18201;BME280;9226;47.858;9.594;2022-09-03T04:33:25;94968.78;;;17.32;79.51
18201;BME280;9226;47.858;9.594;2022-09-03T04:35:51;94961.09;;;17.29;81.52
18201;BME280;9226;47.858;9.594;2022-09-03T04:38:16;94966.13;;;17.32;80.40
18201;BME280;9226;47.858;9.594;2022-09-03T04:40:42;94966.81;;;17.26;81.99
18201;BME280;9226;47.858;9.594;2022-09-03T04:43:08;94986.06;;;17.29;81.65
18201;BME280;9226;47.858;9.594;2022-09-03T04:45:33;94981.84;;;17.35;81.64
18201;BME280;9226;47.858;9.594;2022-09-03T04:48:03;94975.16;;;17.31;82.06
18201;BME280;9226;47.858;9.594;2022-09-03T04:50:30;94981.84;;;17.35;81.58
18201;BME280;9226;47.858;9.594;2022-09-03T04:53:00;94993.56;;;17.34;82.89
18201;BME280;9226;47.858;9.594;2022-09-03T04:55:27;94993.88;;;17.39;82.08
18201;BME280;9226;47.858;9.594;2022-09-03T04:57:52;94993.75;;;17.32;82.88
18201;BME280;9226;47.858;9.594;2022-09-03T05:00:18;94998.28;;;17.32;83.72
18201;BME280;9226;47.858;9.594;2022-09-03T05:02:44;95000.91;;;17.40;82.26
18201;BME280;9226;47.858;9.594;2022-09-03T05:05:16;95001.88;;;17.47;81.38
18201;BME280;9226;47.858;9.594;2022-09-03T05:07:42;95001.88;;;17.47;82.41
18201;BME280;9226;47.858;9.594;2022-09-03T05:10:10;94996.88;;;17.44;82.93
18201;BME280;9226;47.858;9.594;2022-09-03T05:12:47;95001.56;;;17.42;82.38
18201;BME280;9226;47.858;9.594;2022-09-03T05:15:21;95005.16;;;17.58;80.98
18201;BME280;9226;47.858;9.594;2022-09-03T05:17:46;95007.81;;;17.58;81.58
18201;BME280;9226;47.858;9.594;2022-09-03T05:20:12;95013.56;;;17.54;82.11
18201;BME280;9226;47.858;9.594;2022-09-03T05:22:39;95014.38;;;17.55;81.96
18201;BME280;9226;47.858;9.594;2022-09-03T05:25:05;95016.06;;;17.56;81.83
18201;BME280;9226;47.858;9.594;2022-09-03T05:27:30;95020.25;;;17.59;81.46
18201;BME280;9226;47.858;9.594;2022-09-03T05:29:56;95017.56;;;17.59;81.69
18201;BME280;9226;47.858;9.594;2022-09-03T05:32:21;95020.69;;;17.39;82.90
18201;BME280;9226;47.858;9.594;2022-09-03T05:34:47;95014.63;;;17.45;80.78
18201;BME280;9226;47.858;9.594;2022-09-03T05:37:12;95020.34;;;17.42;80.20
18201;BME280;9226;47.858;9.594;2022-09-03T05:39:37;95020.69;;;17.39;80.34
18201;BME280;9226;47.858;9.594;2022-09-03T05:42:03;95023.53;;;17.38;80.10
18201;BME280;9226;47.858;9.594;2022-09-03T05:44:29;95019.22;;;17.36;80.73
18201;BME280;9226;47.858;9.594;2022-09-03T05:46:55;95014.09;;;17.27;81.36
18201;BME280;9226;47.858;9.594;2022-09-03T05:49:21;95016.56;;;17.28;81.53
18201;BME280;9226;47.858;9.594;2022-09-03T05:51:46;95025.50;;;17.21;83.24
18201;BME280;9226;47.858;9.594;2022-09-03T05:54:12;95025.84;;;17.17;83.47
18201;BME280;9226;47.858;9.594;2022-09-03T05:56:39;95020.78;;;17.23;82.80
18201;BME280;9226;47.858;9.594;2022-09-03T05:59:06;95024.06;;;17.33;81.59
18201;BME280;9226;47.858;9.594;2022-09-03T06:01:41;95026.03;;;17.39;82.17
18201;BME280;9226;47.858;9.594;2022-09-03T06:04:10;95015.66;;;17.44;81.95
18201;BME280;9226;47.858;9.594;2022-09-03T06:06:38;95017.66;;;17.42;82.86
18201;BME280;9226;47.858;9.594;2022-09-03T06:09:06;95014.91;;;17.50;82.15
18201;BME280;9226;47.858;9.594;2022-09-03T06:11:33;95016.06;;;17.56;81.61
18201;BME280;9226;47.858;9.594;2022-09-03T06:14:00;95009.53;;;17.50;83.59
18201;BME280;9226;47.858;9.594;2022-09-03T06:16:31;95016.88;;;17.57;84.06
18201;BME280;9226;47.858;9.594;2022-09-03T06:18:58;95017.84;;;17.64;83.72
18201;BME280;9226;47.858;9.594;2022-09-03T06:21:23;95019.28;;;17.75;82.80
18201;BME280;9226;47.858;9.594;2022-09-03T06:23:52;95010.69;;;17.79;81.85
18201;BME280;9226;47.858;9.594;2022-09-03T06:26:21;95011.63;;;17.86;81.85
18201;BME280;9226;47.858;9.594;2022-09-03T06:28:47;95015.00;;;17.88;81.91
18201;BME280;9226;47.858;9.594;2022-09-03T06:31:18;95009.56;;;17.97;81.75
18201;BME280;9226;47.858;9.594;2022-09-03T06:33:46;95014.84;;;17.90;83.10
18201;BME280;9226;47.858;9.594;2022-09-03T06:36:17;95011.22;;;17.98;82.88
18201;BME280;9226;47.858;9.594;2022-09-03T06:38:43;95013.09;;;18.12;81.73
18201;BME280;9226;47.858;9.594;2022-09-03T06:41:10;95007.88;;;18.19;82.48
18201;BME280;9226;47.858;9.594;2022-09-03T06:43:40;95007.50;;;18.37;84.62
18201;BME280;9226;47.858;9.594;2022-09-03T06:46:14;95002.28;;;18.88;83.73
18201;BME280;9226;47.858;9.594;2022-09-03T06:48:40;95005.75;;;19.19;80.26
18201;BME280;9226;47.858;9.594;2022-09-03T06:51:12;95002.09;;;19.63;79.27
18201;BME280;9226;47.858;9.594;2022-09-03T06:53:40;95007.81;;;19.96;78.76
18201;BME280;9226;47.858;9.594;2022-09-03T06:56:10;94997.25;;;20.80;80.33
18201;BME280;9226;47.858;9.594;2022-09-03T06:58:38;94994.22;;;21.51;74.42
18201;BME280;9226;47.858;9.594;2022-09-03T07:01:20;94998.25;;;22.42;71.14
18201;BME280;9226;47.858;9.594;2022-09-03T07:03:50;94991.22;;;23.65;70.12
18201;BME280;9226;47.858;9.594;2022-09-03T07:06:18;94995.78;;;24.79;64.68
18201;BME280;9226;47.858;9.594;2022-09-03T07:08:44;94987.22;;;25.98;61.90
18201;BME280;9226;47.858;9.594;2022-09-03T07:11:13;94979.88;;;26.52;57.19
18201;BME280;9226;47.858;9.594;2022-09-03T07:13:41;94985.09;;;26.54;54.49
18201;BME280;9226;47.858;9.594;2022-09-03T07:16:21;94982.03;;;25.66;53.75
18201;BME280;9226;47.858;9.594;2022-09-03T07:18:50;94987.81;;;25.39;55.46
18201;BME280;9226;47.858;9.594;2022-09-03T07:21:18;94983.28;;;24.59;56.06
18201;BME280;9226;47.858;9.594;2022-09-03T07:23:44;94978.94;;;23.62;59.07
18201;BME280;9226;47.858;9.594;2022-09-03T07:26:18;94977.88;;;23.32;60.10
18201;BME280;9226;47.858;9.594;2022-09-03T07:28:45;94972.97;;;23.02;60.83
18201;BME280;9226;47.858;9.594;2022-09-03T07:31:15;94986.38;;;22.56;61.86
18201;BME280;9226;47.858;9.594;2022-09-03T07:33:41;94979.56;;;22.34;63.00
18201;BME280;9226;47.858;9.594;2022-09-03T07:36:09;94985.56;;;22.02;64.00
18201;BME280;9226;47.858;9.594;2022-09-03T07:38:35;94986.81;;;21.86;64.83
18201;BME280;9226;47.858;9.594;2022-09-03T07:41:04;94988.84;;;21.71;65.70
18201;BME280;9226;47.858;9.594;2022-09-03T07:43:37;94986.34;;;21.69;66.73
18201;BME280;9226;47.858;9.594;2022-09-03T07:46:05;95000.84;;;21.48;66.99
18201;BME280;9226;47.858;9.594;2022-09-03T07:48:34;94988.84;;;21.58;66.86
18201;BME280;9226;47.858;9.594;2022-09-03T07:51:00;94993.13;;;21.45;68.05
18201;BME280;9226;47.858;9.594;2022-09-03T07:53:27;94986.75;;;21.60;69.48
18201;BME280;9226;47.858;9.594;2022-09-03T07:55:59;94984.53;;;22.17;68.55
18201;BME280;9226;47.858;9.594;2022-09-03T07:58:28;94985.34;;;22.57;66.88
18201;BME280;9226;47.858;9.594;2022-09-03T08:00:53;94983.31;;;23.25;66.15
18201;BME280;9226;47.858;9.594;2022-09-03T08:03:20;94974.94;;;24.03;63.13
18201;BME280;9226;47.858;9.594;2022-09-03T08:05:46;94970.78;;;24.51;59.82
18201;BME280;9226;47.858;9.594;2022-09-03T08:08:11;94986.00;;;25.15;55.61
18201;BME280;9226;47.858;9.594;2022-09-03T08:10:38;94984.19;;;25.27;55.40
18201;BME280;9226;47.858;9.594;2022-09-03T08:13:04;94984.06;;;25.40;54.25
18201;BME280;9226;47.858;9.594;2022-09-03T08:15:31;94981.75;;;25.56;53.51
18201;BME280;9226;47.858;9.594;2022-09-03T08:17:57;94983.13;;;25.46;54.75
18201;BME280;9226;47.858;9.594;2022-09-03T08:20:24;94977.38;;;25.55;54.27
18201;BME280;9226;47.858;9.594;2022-09-03T08:22:50;94976.97;;;26.00;54.69
18201;BME280;9226;47.858;9.594;2022-09-03T08:25:16;94976.22;;;26.70;54.57
18201;BME280;9226;47.858;9.594;2022-09-03T08:27:42;94988.34;;;27.39;50.97
18201;BME280;9226;47.858;9.594;2022-09-03T08:30:07;94994.06;;;27.66;48.40
18201;BME280;9226;47.858;9.594;2022-09-03T08:32:38;94993.44;;;27.76;47.58
18201;BME280;9226;47.858;9.594;2022-09-03T08:35:05;94994.88;;;27.67;47.40
18201;BME280;9226;47.858;9.594;2022-09-03T08:37:31;94999.16;;;27.62;47.49
18201;BME280;9226;47.858;9.594;2022-09-03T08:39:57;95004.00;;;28.01;46.60
18201;BME280;9226;47.858;9.594;2022-09-03T08:44:58;94997.97;;;29.18;45.33
18201;BME280;9226;47.858;9.594;2022-09-03T08:50:08;95008.53;;;29.31;40.73
18201;BME280;9226;47.858;9.594;2022-09-03T08:52:45;95012.38;;;29.13;42.10
18201;BME280;9226;47.858;9.594;2022-09-03T08:55:22;95017.19;;;28.55;42.77
18201;BME280;9226;47.858;9.594;2022-09-03T08:57:53;95017.44;;;28.37;44.00
18201;BME280;9226;47.858;9.594;2022-09-03T09:00:21;95025.59;;;28.03;44.48
18201;BME280;9226;47.858;9.594;2022-09-03T09:05:51;95021.56;;;26.88;46.05
18201;BME280;9226;47.858;9.594;2022-09-03T09:08:34;95019.63;;;26.53;47.23
18201;BME280;9226;47.858;9.594;2022-09-03T09:11:12;95012.50;;;26.29;47.68
18201;BME280;9226;47.858;9.594;2022-09-03T09:13:49;95012.84;;;26.21;47.59
18201;BME280;9226;47.858;9.594;2022-09-03T09:16:39;95009.91;;;26.58;47.86
18201;BME280;9226;47.858;9.594;2022-09-03T09:24:47;95002.28;;;28.97;44.67
18201;BME280;9226;47.858;9.594;2022-09-03T09:27:16;95003.31;;;29.96;43.42
18201;BME280;9226;47.858;9.594;2022-09-03T09:29:45;95000.47;;;30.73;39.70
18201;BME280;9226;47.858;9.594;2022-09-03T09:32:13;94998.31;;;31.23;38.83
18201;BME280;9226;47.858;9.594;2022-09-03T09:34:39;94993.09;;;31.74;39.15
18201;BME280;9226;47.858;9.594;2022-09-03T09:37:13;94992.69;;;32.59;37.16
18201;BME280;9226;47.858;9.594;2022-09-03T09:39:40;94994.03;;;33.08;36.29
18201;BME280;9226;47.858;9.594;2022-09-03T09:42:08;95006.06;;;34.08;34.83
18201;BME280;9226;47.858;9.594;2022-09-03T09:44:41;95010.28;;;34.40;34.03
18201;BME280;9226;47.858;9.594;2022-09-03T09:47:12;95005.63;;;34.36;32.21
18201;BME280;9226;47.858;9.594;2022-09-03T09:52:16;95000.50;;;34.93;31.97
18201;BME280;9226;47.858;9.594;2022-09-03T09:54:43;95000.91;;;34.81;31.38
18201;BME280;9226;47.858;9.594;2022-09-03T09:57:21;94996.59;;;34.99;31.25
18201;BME280;9226;47.858;9.594;2022-09-03T09:59:46;95001.34;;;35.71;31.22
18201;BME280;9226;47.858;9.594;2022-09-03T10:02:19;94998.88;;;35.45;29.27
18201;BME280;9226;47.858;9.594;2022-09-03T10:04:51;95006.47;;;35.59;29.50
18201;BME280;9226;47.858;9.594;2022-09-03T10:07:20;94998.91;;;35.69;28.78
18201;BME280;9226;47.858;9.594;2022-09-03T10:09:57;94998.31;;;35.48;28.59
18201;BME280;9226;47.858;9.594;2022-09-03T10:12:44;95005.00;;;35.91;29.55
18201;BME280;9226;47.858;9.594;2022-09-03T10:15:21;95000.66;;;35.36;28.76
18201;BME280;9226;47.858;9.594;2022-09-03T10:20:57;94987.63;;;36.09;29.91
18201;BME280;9226;47.858;9.594;2022-09-03T10:23:28;94984.47;;;35.97;27.49
18201;BME280;9226;47.858;9.594;2022-09-03T10:28:35;94976.78;;;35.94;28.44
18201;BME280;9226;47.858;9.594;2022-09-03T10:33:57;94977.88;;;35.49;29.08
18201;BME280;9226;47.858;9.594;2022-09-03T10:42:19;94991.88;;;35.05;27.98
18201;BME280;9226;47.858;9.594;2022-09-03T10:50:17;95004.44;;;33.32;30.54
18201;BME280;9226;47.858;9.594;2022-09-03T10:53:10;95010.81;;;32.86;31.74
18201;BME280;9226;47.858;9.594;2022-09-03T11:07:08;95056.41;;;29.34;37.33
18201;BME280;9226;47.858;9.594;2022-09-03T11:09:39;95073.69;;;28.09;41.80
18201;BME280;9226;47.858;9.594;2022-09-03T11:12:11;95071.84;;;27.33;43.65
18201;BME280;9226;47.858;9.594;2022-09-03T11:14:44;95073.03;;;26.66;46.41
18201;BME280;9226;47.858;9.594;2022-09-03T11:17:18;95075.28;;;25.97;49.25
18201;BME280;9226;47.858;9.594;2022-09-03T11:19:59;95074.72;;;25.39;50.35
18201;BME280;9226;47.858;9.594;2022-09-03T11:22:30;95071.13;;;25.02;50.32
18201;BME280;9226;47.858;9.594;2022-09-03T11:24:58;95055.78;;;24.70;50.69
18201;BME280;9226;47.858;9.594;2022-09-03T11:27:36;95064.16;;;24.37;52.08
18201;BME280;9226;47.858;9.594;2022-09-03T11:30:23;95061.19;;;24.13;51.80
18201;BME280;9226;47.858;9.594;2022-09-03T11:32:55;95064.69;;;23.82;52.67
18201;BME280;9226;47.858;9.594;2022-09-03T11:38:01;95073.19;;;23.40;52.71
18201;BME280;9226;47.858;9.594;2022-09-03T11:40:38;95066.78;;;23.21;55.74
18201;BME280;9226;47.858;9.594;2022-09-03T11:45:36;95074.97;;;23.08;57.10
18201;BME280;9226;47.858;9.594;2022-09-03T11:48:28;95071.22;;;23.09;57.25
18201;BME280;9226;47.858;9.594;2022-09-03T11:50:57;95061.19;;;22.96;57.50
18201;BME280;9226;47.858;9.594;2022-09-03T11:53:35;95061.25;;;22.76;59.27
18201;BME280;9226;47.858;9.594;2022-09-03T11:56:16;95052.13;;;22.57;61.08
18201;BME280;9226;47.858;9.594;2022-09-03T11:58:42;95063.38;;;22.47;61.79
18201;BME280;9226;47.858;9.594;2022-09-03T12:01:10;95059.00;;;22.39;63.51
18201;BME280;9226;47.858;9.594;2022-09-03T12:12:05;95076.78;;;21.94;65.13
18201;BME280;9226;47.858;9.594;2022-09-03T12:17:31;95080.34;;;22.14;65.72
18201;BME280;9226;47.858;9.594;2022-09-03T12:20:00;95082.88;;;22.36;64.44
18201;BME280;9226;47.858;9.594;2022-09-03T12:22:28;95089.75;;;22.45;64.14
18201;BME280;9226;47.858;9.594;2022-09-03T12:24:54;95069.59;;;22.41;65.41
18201;BME280;9226;47.858;9.594;2022-09-03T12:27:22;95075.34;;;22.11;65.52
18201;BME280;9226;47.858;9.594;2022-09-03T12:29:54;95079.53;;;22.20;65.48
18201;BME280;9226;47.858;9.594;2022-09-03T12:32:24;95075.56;;;22.23;65.10
18201;BME280;9226;47.858;9.594;2022-09-03T12:34:50;95074.94;;;22.28;64.77
18201;BME280;9226;47.858;9.594;2022-09-03T12:37:20;95070.78;;;22.18;65.59
18201;BME280;9226;47.858;9.594;2022-09-03T12:39:53;95057.50;;;22.23;65.62
18201;BME280;9226;47.858;9.594;2022-09-03T12:42:24;95062.53;;;22.33;64.86
18201;BME280;9226;47.858;9.594;2022-09-03T12:44:51;95060.41;;;22.29;64.57
18201;BME280;9226;47.858;9.594;2022-09-03T12:47:19;95065.22;;;22.47;64.64
18201;BME280;9226;47.858;9.594;2022-09-03T12:49:51;95055.22;;;22.61;64.64
18201;BME280;9226;47.858;9.594;2022-09-03T12:52:23;95058.34;;;22.71;64.61
18201;BME280;9226;47.858;9.594;2022-09-03T12:57:37;95060.81;;;22.86;63.52
18201;BME280;9226;47.858;9.594;2022-09-03T13:00:08;95056.66;;;22.83;62.56
18201;BME280;9226;47.858;9.594;2022-09-03T13:02:59;95051.47;;;22.75;62.85
18201;BME280;9226;47.858;9.594;2022-09-03T13:05:40;95042.13;;;22.77;63.26
18201;BME280;9226;47.858;9.594;2022-09-03T13:08:13;95031.31;;;22.71;64.19
18201;BME280;9226;47.858;9.594;2022-09-03T13:10:42;95031.31;;;22.77;64.44
18201;BME280;9226;47.858;9.594;2022-09-03T13:13:23;95033.00;;;22.58;64.79
18201;BME280;9226;47.858;9.594;2022-09-03T13:22:01;95024.88;;;22.58;65.26
18201;BME280;9226;47.858;9.594;2022-09-03T13:27:41;95045.03;;;22.22;63.93
18201;BME280;9226;47.858;9.594;2022-09-03T13:30:16;95019.88;;;22.29;63.16
18201;BME280;9226;47.858;9.594;2022-09-03T13:37:55;95013.63;;;22.55;63.58
18201;BME280;9226;47.858;9.594;2022-09-03T13:40:44;95023.63;;;22.68;63.75
18201;BME280;9226;47.858;9.594;2022-09-03T13:43:38;95035.91;;;22.57;63.22
18201;BME280;9226;47.858;9.594;2022-09-03T13:48:40;95036.75;;;22.51;62.26
18201;BME280;9226;47.858;9.594;2022-09-03T13:51:29;95050.63;;;22.21;62.03
18201;BME280;9226;47.858;9.594;2022-09-03T13:56:49;95045.06;;;22.49;61.09
18201;BME280;9226;47.858;9.594;2022-09-03T14:11:02;95051.50;;;22.62;59.72
18201;BME280;9226;47.858;9.594;2022-09-03T14:13:47;95047.13;;;22.61;59.77
18201;BME280;9226;47.858;9.594;2022-09-03T14:19:02;95048.38;;;22.65;59.39
18201;BME280;9226;47.858;9.594;2022-09-03T14:21:53;95051.69;;;22.67;60.24
18201;BME280;9226;47.858;9.594;2022-09-03T14:27:28;95037.09;;;22.94;59.42
18201;BME280;9226;47.858;9.594;2022-09-03T14:29:59;95032.28;;;22.97;58.70
18201;BME280;9226;47.858;9.594;2022-09-03T14:32:39;95026.88;;;23.10;58.58
18201;BME280;9226;47.858;9.594;2022-09-03T14:40:33;95020.84;;;23.08;56.87
18201;BME280;9226;47.858;9.594;2022-09-03T14:43:31;95022.03;;;23.25;57.73
18201;BME280;9226;47.858;9.594;2022-09-03T14:59:38;95018.94;;;23.60;54.92
18201;BME280;9226;47.858;9.594;2022-09-03T15:12:58;95008.22;;;23.40;54.59
18201;BME280;9226;47.858;9.594;2022-09-03T15:15:35;95007.31;;;23.60;55.46
18201;BME280;9226;47.858;9.594;2022-09-03T15:20:48;95010.50;;;23.43;55.64
18201;BME280;9226;47.858;9.594;2022-09-03T15:24:22;95006.19;;;23.36;55.64
18201;BME280;9226;47.858;9.594;2022-09-03T15:29:25;95005.16;;;23.30;56.05
18201;BME280;9226;47.858;9.594;2022-09-03T15:32:21;94998.06;;;23.29;56.06
18201;BME280;9226;47.858;9.594;2022-09-03T15:38:00;95008.13;;;23.15;56.31
18201;BME280;9226;47.858;9.594;2022-09-03T15:40:33;95002.09;;;23.13;56.45
18201;BME280;9226;47.858;9.594;2022-09-03T15:43:09;95006.06;;;22.97;56.18
18201;BME280;9226;47.858;9.594;2022-09-03T15:48:31;95004.19;;;22.98;56.81
18201;BME280;9226;47.858;9.594;2022-09-03T15:53:56;95006.50;;;22.94;56.64
18201;BME280;9226;47.858;9.594;2022-09-03T16:02:11;95009.59;;;23.11;56.76
18201;BME280;9226;47.858;9.594;2022-09-03T16:04:55;95015.00;;;22.98;56.83
18201;BME280;9226;47.858;9.594;2022-09-03T16:10:12;95020.03;;;22.87;56.63
18201;BME280;9226;47.858;9.594;2022-09-03T16:13:08;95025.22;;;22.95;56.66
18201;BME280;9226;47.858;9.594;2022-09-03T16:15:48;95020.00;;;22.94;56.91
18201;BME280;9226;47.858;9.594;2022-09-03T16:18:22;95025.44;;;22.94;56.53
18201;BME280;9226;47.858;9.594;2022-09-03T16:26:09;95022.50;;;22.95;56.35
18201;BME280;9226;47.858;9.594;2022-09-03T16:28:53;95022.28;;;22.97;56.06
18201;BME280;9226;47.858;9.594;2022-09-03T16:44:51;95033.31;;;22.95;56.21
18201;BME280;9226;47.858;9.594;2022-09-03T16:50:28;95037.50;;;22.85;56.18
18201;BME280;9226;47.858;9.594;2022-09-03T16:59:23;95037.16;;;22.68;57.36
18201;BME280;9226;47.858;9.594;2022-09-03T17:05:11;95047.94;;;22.54;57.54
18201;BME280;9226;47.858;9.594;2022-09-03T17:18:45;95050.44;;;22.36;58.56
18201;BME280;9226;47.858;9.594;2022-09-03T17:29:20;95052.69;;;21.99;59.65
18201;BME280;9226;47.858;9.594;2022-09-03T17:32:44;95050.19;;;22.04;58.87
18201;BME280;9226;47.858;9.594;2022-09-03T17:35:35;95060.38;;;21.89;59.80
18201;BME280;9226;47.858;9.594;2022-09-03T17:43:23;95057.81;;;21.74;60.43
18201;BME280;9226;47.858;9.594;2022-09-03T17:48:54;95053.22;;;21.61;60.66
18201;BME280;9226;47.858;9.594;2022-09-03T17:51:42;95062.13;;;21.55;60.55
18201;BME280;9226;47.858;9.594;2022-09-03T17:57:09;95063.09;;;21.40;60.44
18201;BME280;9226;47.858;9.594;2022-09-03T18:00:20;95063.84;;;21.27;61.48